createdAt,value
2022-11-08T00:01:31.309Z,1.55
2022-11-08T00:03:58.860Z,1.58
2022-11-08T00:06:44.967Z,2.00
2022-11-08T00:09:30.907Z,2.30
2022-11-08T00:12:16.935Z,1.95
2022-11-08T00:14:44.173Z,1.33
2022-11-08T00:17:11.275Z,1.60
2022-11-08T00:19:38.325Z,1.60
2022-11-08T00:22:05.398Z,1.60
2022-11-08T00:24:32.427Z,1.50
2022-11-08T00:26:59.552Z,1.48
2022-11-08T00:29:26.638Z,1.67
2022-11-08T00:31:53.705Z,1.77
2022-11-08T00:34:20.827Z,1.67
2022-11-08T00:36:47.840Z,1.60
2022-11-08T00:39:14.907Z,1.77
2022-11-08T00:41:42.190Z,1.95
2022-11-08T00:44:09.225Z,2.78
2022-11-08T00:46:37.484Z,1.63
2022-11-08T00:49:04.608Z,2.45
2022-11-08T00:51:31.716Z,1.30
2022-11-08T00:53:58.768Z,1.30
2022-11-08T00:56:26.566Z,1.48
2022-11-08T00:58:53.624Z,1.35
2022-11-08T01:01:21.766Z,1.83
2022-11-08T01:03:49.255Z,1.48
2022-11-08T01:06:17.587Z,1.60
2022-11-08T01:08:45.141Z,2.72
2022-11-08T01:11:14.361Z,1.92
2022-11-08T01:13:41.457Z,1.70
2022-11-08T01:16:08.647Z,2.05
2022-11-08T01:18:35.700Z,1.92
2022-11-08T01:21:03.776Z,1.98
2022-11-08T01:23:31.335Z,2.13
2022-11-08T01:26:02.744Z,2.35
2022-11-08T01:28:29.796Z,1.70
2022-11-08T01:30:56.908Z,2.25
2022-11-08T01:33:23.965Z,1.60
2022-11-08T01:35:51.050Z,1.67
2022-11-08T01:38:18.420Z,1.60
2022-11-08T01:40:46.443Z,1.42
2022-11-08T01:43:28.605Z,1.67
2022-11-08T01:46:01.657Z,1.40
2022-11-08T01:48:29.253Z,1.42
2022-11-08T01:50:58.558Z,1.55
2022-11-08T01:53:26.519Z,2.55
2022-11-08T01:55:53.636Z,2.03
2022-11-08T01:58:22.337Z,1.60
2022-11-08T02:00:49.644Z,1.90
2022-11-08T02:03:18.683Z,1.60
2022-11-08T02:05:46.347Z,1.83
2022-11-08T02:08:33.156Z,1.50
2022-11-08T02:11:00.234Z,2.38
2022-11-08T02:13:28.710Z,1.48
2022-11-08T02:15:55.957Z,1.70
2022-11-08T02:18:25.116Z,1.92
2022-11-08T02:21:10.879Z,1.75
2022-11-08T02:23:44.030Z,1.85
2022-11-08T02:26:11.664Z,1.80
2022-11-08T02:28:42.539Z,1.50
2022-11-08T02:31:10.832Z,1.50
2022-11-08T02:33:38.208Z,1.40
2022-11-08T02:36:05.757Z,2.13
2022-11-08T02:38:34.846Z,1.45
2022-11-08T02:41:01.919Z,1.95
2022-11-08T02:43:28.955Z,1.40
2022-11-08T02:45:57.947Z,1.65
2022-11-08T02:48:25.321Z,1.77
2022-11-08T02:50:52.819Z,1.95
2022-11-08T02:53:19.903Z,1.33
2022-11-08T02:55:47.008Z,1.63
2022-11-08T02:58:14.087Z,1.65
2022-11-08T03:00:41.241Z,2.22
2022-11-08T03:03:08.347Z,1.98
2022-11-08T03:05:35.401Z,2.40
2022-11-08T03:08:02.563Z,1.70
2022-11-08T03:10:30.128Z,1.95
2022-11-08T03:13:01.402Z,1.70
2022-11-08T03:15:28.742Z,1.85
2022-11-08T03:18:00.080Z,1.85
2022-11-08T03:20:32.429Z,2.13
2022-11-08T03:23:00.844Z,1.88
2022-11-08T03:25:27.996Z,2.15
2022-11-08T03:27:55.077Z,2.40
2022-11-08T03:30:22.700Z,1.95
2022-11-08T03:32:50.245Z,1.92
2022-11-08T03:35:17.443Z,2.05
2022-11-08T03:37:51.588Z,1.60
2022-11-08T03:40:19.027Z,1.95
2022-11-08T03:42:46.080Z,2.42
2022-11-08T03:45:13.449Z,1.67
2022-11-08T03:47:41.203Z,1.50
2022-11-08T03:50:08.502Z,2.00
2022-11-08T03:52:42.712Z,1.60
2022-11-08T03:55:10.676Z,2.33
2022-11-08T03:57:41.299Z,2.10
2022-11-08T04:00:09.374Z,1.50
2022-11-08T04:02:36.532Z,1.65
2022-11-08T04:05:03.646Z,2.10
2022-11-08T04:07:30.688Z,1.10
2022-11-08T04:09:57.730Z,1.65
2022-11-08T04:12:44.193Z,1.48
2022-11-08T04:15:15.451Z,2.08
2022-11-08T04:18:11.925Z,1.25
2022-11-08T04:20:58.633Z,1.40
2022-11-08T04:23:26.559Z,1.55
2022-11-08T04:25:54.866Z,1.42
2022-11-08T04:28:23.444Z,1.48
2022-11-08T04:30:54.470Z,1.50
2022-11-08T04:33:21.604Z,1.60
2022-11-08T04:35:49.297Z,1.40
2022-11-08T04:38:17.120Z,1.77
2022-11-08T04:40:45.015Z,1.85
2022-11-08T04:43:12.212Z,1.77
2022-11-08T04:45:39.368Z,1.65
2022-11-08T04:48:06.614Z,1.90
2022-11-08T04:50:33.701Z,1.38
2022-11-08T04:53:01.245Z,1.70
2022-11-08T04:55:28.313Z,1.63
2022-11-08T04:57:58.042Z,1.52
2022-11-08T05:00:25.242Z,1.63
2022-11-08T05:02:52.487Z,1.23
2022-11-08T05:05:19.622Z,1.38
2022-11-08T05:07:46.702Z,1.65
2022-11-08T05:10:13.782Z,2.13
2022-11-08T05:12:40.827Z,1.80
2022-11-08T05:15:08.310Z,1.30
2022-11-08T05:17:35.354Z,1.45
2022-11-08T05:20:21.391Z,1.80
2022-11-08T05:23:07.381Z,1.52
2022-11-08T05:25:34.485Z,1.55
2022-11-08T05:28:01.536Z,1.40
2022-11-08T05:30:28.594Z,1.23
2022-11-08T05:32:55.640Z,1.30
2022-11-08T05:35:22.968Z,1.58
2022-11-08T05:37:50.025Z,1.83
2022-11-08T05:40:17.105Z,1.35
2022-11-08T05:42:44.206Z,2.55
2022-11-08T05:45:11.456Z,1.60
2022-11-08T05:47:38.980Z,1.10
2022-11-08T05:50:06.297Z,1.60
2022-11-08T05:52:33.588Z,1.30
2022-11-08T05:55:00.973Z,1.60
2022-11-08T05:57:28.070Z,1.40
2022-11-08T05:59:55.114Z,1.80
2022-11-08T06:02:22.274Z,1.80
2022-11-08T06:04:50.111Z,1.65
2022-11-08T06:07:17.249Z,1.75
2022-11-08T06:09:44.361Z,2.10
2022-11-08T06:12:11.398Z,1.85
2022-11-08T06:14:38.445Z,2.00
2022-11-08T06:17:05.520Z,1.90
2022-11-08T06:19:32.555Z,1.77
2022-11-08T06:21:59.618Z,1.88
2022-11-08T06:24:26.681Z,2.33
2022-11-08T06:26:53.785Z,2.00
2022-11-08T06:29:20.808Z,2.17
2022-11-08T06:31:47.885Z,2.35
2022-11-08T06:34:14.945Z,1.98
2022-11-08T06:36:42.186Z,2.03
2022-11-08T06:39:09.347Z,2.05
2022-11-08T06:41:36.493Z,2.35
2022-11-08T06:44:03.582Z,2.78
2022-11-08T06:46:30.835Z,1.90
2022-11-08T06:48:58.112Z,2.22
2022-11-08T06:51:25.175Z,2.25
2022-11-08T06:53:52.216Z,1.92
2022-11-08T06:56:19.300Z,2.38
2022-11-08T06:58:46.390Z,2.10
2022-11-08T07:01:13.743Z,2.00
2022-11-08T07:03:40.894Z,1.50
2022-11-08T07:06:08.326Z,1.67
2022-11-08T07:08:35.622Z,2.00
2022-11-08T07:11:02.937Z,2.13
2022-11-08T07:13:30.242Z,1.42
2022-11-08T07:15:58.421Z,1.75
2022-11-08T07:18:25.531Z,1.50
2022-11-08T07:20:52.652Z,1.52
2022-11-08T07:23:20.172Z,1.60
2022-11-08T07:25:47.447Z,1.80
2022-11-08T07:28:18.785Z,3.10
2022-11-08T07:30:46.582Z,1.55
2022-11-08T07:33:14.195Z,1.80
2022-11-08T07:35:41.744Z,1.73
2022-11-08T07:38:08.783Z,1.40
2022-11-08T07:40:35.847Z,2.60
2022-11-08T07:43:11.620Z,1.45
2022-11-08T07:45:39.285Z,2.08
2022-11-08T07:48:11.524Z,1.50
2022-11-08T07:50:40.137Z,1.20
2022-11-08T07:53:07.195Z,1.30
2022-11-08T07:55:36.256Z,1.63
2022-11-08T07:58:03.340Z,0.90
2022-11-08T08:00:31.147Z,1.48
2022-11-08T08:03:02.059Z,1.25
2022-11-08T08:05:30.928Z,1.40
2022-11-08T08:07:58.694Z,1.38
2022-11-08T08:10:26.535Z,1.45
2022-11-08T08:12:53.707Z,1.20
2022-11-08T08:15:20.784Z,1.20
2022-11-08T08:17:47.969Z,1.48
2022-11-08T08:20:15.024Z,1.15
2022-11-08T08:22:45.825Z,1.42
2022-11-08T08:25:13.348Z,1.42
2022-11-08T08:27:40.505Z,1.20
2022-11-08T08:30:08.057Z,1.00
2022-11-08T08:32:35.151Z,1.45
2022-11-08T08:35:02.221Z,1.15
2022-11-08T08:37:29.629Z,1.20
2022-11-08T08:39:56.675Z,1.60
2022-11-08T08:42:23.754Z,1.10
2022-11-08T08:44:50.797Z,1.20
2022-11-08T08:47:17.859Z,0.90
2022-11-08T08:49:44.968Z,1.30
2022-11-08T08:52:12.028Z,1.00
2022-11-08T08:54:39.082Z,1.25
2022-11-08T08:57:06.145Z,0.95
2022-11-08T09:02:20.296Z,1.38
2022-11-08T09:04:47.500Z,1.00
2022-11-08T09:07:14.619Z,1.10
2022-11-08T09:09:41.844Z,1.20
2022-11-08T09:12:11.815Z,1.40
2022-11-08T09:14:40.614Z,1.13
2022-11-08T09:17:07.705Z,1.00
2022-11-08T09:19:34.751Z,1.05
2022-11-08T09:22:01.913Z,0.77
2022-11-08T09:24:29.435Z,1.25
2022-11-08T09:26:56.584Z,0.90
2022-11-08T09:29:23.727Z,1.10
2022-11-08T09:31:50.980Z,1.13
2022-11-08T09:34:20.745Z,0.88
2022-11-08T09:36:48.939Z,0.82
2022-11-08T09:39:16.560Z,0.90
2022-11-08T09:41:51.412Z,1.05
2022-11-08T09:44:40.383Z,0.95
2022-11-08T09:47:22.689Z,1.60
2022-11-08T09:50:01.104Z,0.88
2022-11-08T09:52:29.307Z,1.00
2022-11-08T09:55:14.229Z,0.95
2022-11-08T09:57:52.116Z,1.65
2022-11-08T10:00:19.466Z,0.90
2022-11-08T10:02:46.554Z,1.08
2022-11-08T10:05:15.936Z,0.90
2022-11-08T10:07:50.401Z,1.20
2022-11-08T10:10:20.507Z,1.00
2022-11-08T10:12:59.745Z,1.27
2022-11-08T10:15:45.397Z,1.30
2022-11-08T10:18:18.678Z,1.33
2022-11-08T10:20:58.119Z,1.00
2022-11-08T10:23:32.896Z,1.20
2022-11-08T10:26:00.773Z,0.82
2022-11-08T10:28:37.244Z,0.90
2022-11-08T10:31:04.876Z,1.00
2022-11-08T10:33:35.447Z,1.30
2022-11-08T10:36:13.509Z,1.70
2022-11-08T10:38:45.627Z,1.08
2022-11-08T10:41:13.510Z,1.58
2022-11-08T10:43:49.697Z,1.20
2022-11-08T10:46:35.874Z,1.88
2022-11-08T10:49:17.248Z,0.90
2022-11-08T10:51:45.413Z,0.90
2022-11-08T10:54:31.243Z,0.70
2022-11-08T10:56:58.358Z,1.27
2022-11-08T10:59:31.848Z,1.05
2022-11-08T11:01:59.205Z,0.93
2022-11-08T11:04:31.209Z,1.20
2022-11-08T11:07:02.507Z,1.30
2022-11-08T11:09:29.693Z,1.00
2022-11-08T11:12:00.709Z,0.90
2022-11-08T11:14:27.822Z,1.15
2022-11-08T11:16:56.553Z,1.27
2022-11-08T11:19:24.864Z,1.10
2022-11-08T11:22:09.374Z,1.15
2022-11-08T11:24:37.538Z,0.90
2022-11-08T11:27:06.065Z,0.90
2022-11-08T11:29:36.884Z,1.27
2022-11-08T11:32:22.668Z,0.98
2022-11-08T11:34:55.306Z,1.45
2022-11-08T11:37:25.473Z,1.10
2022-11-08T11:39:57.369Z,1.35
2022-11-08T11:42:46.225Z,1.08
2022-11-08T11:45:19.635Z,0.90
2022-11-08T11:47:49.354Z,1.05
2022-11-08T11:50:21.313Z,0.90
2022-11-08T11:52:48.469Z,1.00
2022-11-08T11:55:16.367Z,1.20
2022-11-08T11:57:55.236Z,1.25
2022-11-08T12:00:22.329Z,0.90
2022-11-08T12:03:07.588Z,0.88
2022-11-08T12:05:39.749Z,1.10
2022-11-08T12:08:26.141Z,1.27
2022-11-08T12:10:56.247Z,1.13
2022-11-08T12:13:28.851Z,1.55
2022-11-08T12:16:06.589Z,1.13
2022-11-08T12:18:43.239Z,0.90
2022-11-08T12:21:29.507Z,1.10
2022-11-08T12:24:02.969Z,0.80
2022-11-08T12:26:53.534Z,1.30
2022-11-08T12:29:26.014Z,0.95
2022-11-08T12:31:56.055Z,1.10
2022-11-08T12:34:42.843Z,0.88
2022-11-08T12:37:09.982Z,0.90
2022-11-08T12:39:40.904Z,0.85
2022-11-08T12:42:10.978Z,0.93
2022-11-08T12:44:56.936Z,1.10
2022-11-08T12:47:42.835Z,1.00
2022-11-08T12:50:12.900Z,0.93
2022-11-08T12:52:50.704Z,1.00
2022-11-08T12:55:25.226Z,1.05
2022-11-08T12:57:54.201Z,1.30
2022-11-08T13:00:21.541Z,0.90
2022-11-08T13:02:59.181Z,0.75
2022-11-08T13:05:29.446Z,1.70
2022-11-08T13:08:02.728Z,0.82
2022-11-08T13:10:32.629Z,1.00
2022-11-08T13:12:59.712Z,0.95
2022-11-08T13:15:28.196Z,1.20
2022-11-08T13:18:04.651Z,0.80
2022-11-08T13:20:42.065Z,0.80
2022-11-08T13:23:13.455Z,1.20
2022-11-08T13:25:41.416Z,0.75
2022-11-08T13:28:27.692Z,0.80
2022-11-08T13:30:59.114Z,1.13
2022-11-08T13:33:29.222Z,1.27
2022-11-08T13:35:59.277Z,0.85
2022-11-08T13:38:41.420Z,0.90
2022-11-08T13:41:08.435Z,1.02
2022-11-08T13:43:35.834Z,0.80
2022-11-08T13:46:27.721Z,0.80
2022-11-08T13:49:05.292Z,0.82
2022-11-08T13:51:33.043Z,0.95
2022-11-08T13:54:04.596Z,0.75
2022-11-08T13:56:40.993Z,0.85
2022-11-08T13:59:27.173Z,1.20
2022-11-08T14:02:05.693Z,1.20
2022-11-08T14:04:33.665Z,1.08
2022-11-08T14:07:18.462Z,0.85
2022-11-08T14:10:07.745Z,1.38
2022-11-08T14:12:37.847Z,1.05
2022-11-08T14:15:20.005Z,1.20
2022-11-08T14:17:48.256Z,0.90
2022-11-08T14:20:23.227Z,1.23
2022-11-08T14:22:50.756Z,1.00
2022-11-08T14:25:20.693Z,1.05
2022-11-08T14:27:47.850Z,0.98
2022-11-08T14:30:16.187Z,0.95
2022-11-08T14:32:43.404Z,1.20
2022-11-08T14:35:11.699Z,1.15
2022-11-08T14:37:40.027Z,0.82
2022-11-08T14:40:07.404Z,0.90
2022-11-08T14:42:34.602Z,1.00
2022-11-08T14:45:01.688Z,1.10
2022-11-08T14:47:30.361Z,1.10
2022-11-08T14:49:58.550Z,1.38
2022-11-08T14:52:30.089Z,0.93
2022-11-08T14:55:07.595Z,1.00
2022-11-08T14:57:42.337Z,1.20
2022-11-08T15:00:13.574Z,1.40
2022-11-08T15:02:41.959Z,1.83
2022-11-08T15:05:26.274Z,1.40
2022-11-08T15:07:53.649Z,1.00
2022-11-08T15:10:20.926Z,1.00
2022-11-08T15:12:48.032Z,1.02
2022-11-08T15:15:20.168Z,0.90
2022-11-08T15:17:47.958Z,0.90
2022-11-08T15:20:15.313Z,1.20
2022-11-08T15:22:44.204Z,1.10
2022-11-08T15:25:29.711Z,0.73
2022-11-08T15:27:58.131Z,0.80
2022-11-08T15:30:31.391Z,1.48
2022-11-08T15:32:58.545Z,0.85
2022-11-08T15:35:38.680Z,1.08
2022-11-08T15:38:26.203Z,1.00
2022-11-08T15:40:57.941Z,0.80
2022-11-08T15:43:34.228Z,1.10
2022-11-08T15:46:02.465Z,0.82
2022-11-08T15:48:29.811Z,0.90
2022-11-08T15:50:57.368Z,1.02
2022-11-08T15:53:25.278Z,1.05
2022-11-08T15:55:54.264Z,0.73
2022-11-08T15:58:25.960Z,1.05
2022-11-08T16:00:53.099Z,1.27
2022-11-08T16:03:20.188Z,0.93
2022-11-08T16:05:47.456Z,0.77
2022-11-08T16:08:20.089Z,0.95
2022-11-08T16:10:49.269Z,1.15
2022-11-08T16:13:24.551Z,0.88
2022-11-08T16:15:51.652Z,1.27
2022-11-08T16:18:21.885Z,0.90
2022-11-08T16:20:49.258Z,1.00
2022-11-08T16:23:16.555Z,0.90
2022-11-08T16:25:48.296Z,0.90
2022-11-08T16:28:27.791Z,0.95
2022-11-08T16:30:54.920Z,0.93
2022-11-08T16:33:26.853Z,1.80
2022-11-08T16:35:58.039Z,1.10
2022-11-08T16:38:27.407Z,0.85
2022-11-08T16:40:54.643Z,0.90
2022-11-08T16:43:21.736Z,1.15
2022-11-08T16:46:04.941Z,0.95
2022-11-08T16:48:33.445Z,1.27
2022-11-08T16:51:01.839Z,1.63
2022-11-08T16:53:29.495Z,1.00
2022-11-08T16:55:57.168Z,1.58
2022-11-08T16:58:24.368Z,1.23
2022-11-08T17:00:52.095Z,0.98
2022-11-08T17:03:21.371Z,0.90
2022-11-08T17:05:48.780Z,1.30
2022-11-08T17:08:16.901Z,1.10
2022-11-08T17:10:44.678Z,1.45
2022-11-08T17:13:14.052Z,1.35
2022-11-08T17:15:41.159Z,1.40
2022-11-08T17:18:08.226Z,1.00
2022-11-08T17:20:36.505Z,1.23
2022-11-08T17:23:03.749Z,1.15
2022-11-08T17:25:30.855Z,1.27
2022-11-08T17:27:58.040Z,1.00
2022-11-08T17:30:26.869Z,1.30
2022-11-08T17:32:54.339Z,1.00
2022-11-08T17:35:21.785Z,1.02
2022-11-08T17:37:48.842Z,1.40
2022-11-08T17:40:15.898Z,0.75
2022-11-08T17:42:43.638Z,1.40
2022-11-08T17:45:11.037Z,1.00
2022-11-08T17:47:38.602Z,1.42
2022-11-08T17:50:06.550Z,1.33
2022-11-08T17:52:33.945Z,1.10
2022-11-08T17:55:01.187Z,1.30
2022-11-08T17:57:28.544Z,0.98
2022-11-08T17:59:55.694Z,1.15
2022-11-08T18:02:22.833Z,1.10
2022-11-08T18:04:49.958Z,1.10
2022-11-08T18:07:17.059Z,1.08
2022-11-08T18:09:44.633Z,1.13
2022-11-08T18:12:11.771Z,1.40
2022-11-08T18:14:38.829Z,1.30
2022-11-08T18:17:05.888Z,1.05
2022-11-08T18:19:32.961Z,1.58
2022-11-08T18:22:00.371Z,0.98
2022-11-08T18:24:27.608Z,1.00
2022-11-08T18:26:54.756Z,1.08
2022-11-08T18:29:22.092Z,0.90
2022-11-08T18:31:49.338Z,1.20
2022-11-08T18:34:16.384Z,1.30
2022-11-08T18:36:43.467Z,1.35
2022-11-08T18:39:15.263Z,1.13
2022-11-08T18:41:45.305Z,1.35
2022-11-08T18:44:12.581Z,1.25
2022-11-08T18:46:43.149Z,1.35
2022-11-08T18:49:10.970Z,0.98
2022-11-08T18:51:38.020Z,0.90
2022-11-08T18:54:05.180Z,1.25
2022-11-08T18:56:32.285Z,0.88
2022-11-08T18:58:59.566Z,1.00
2022-11-08T19:01:26.647Z,1.13
2022-11-08T19:03:53.717Z,1.40
2022-11-08T19:06:20.849Z,1.13
2022-11-08T19:08:48.037Z,1.00
2022-11-08T19:11:20.242Z,0.77
2022-11-08T19:13:47.477Z,1.35
2022-11-08T19:16:15.901Z,1.20
2022-11-08T19:18:43.901Z,1.15
2022-11-08T19:21:13.385Z,1.20
2022-11-08T19:23:40.465Z,1.45
2022-11-08T19:26:10.936Z,1.60
2022-11-08T19:28:39.097Z,1.45
2022-11-08T19:31:06.633Z,1.38
2022-11-08T19:33:34.691Z,1.40
2022-11-08T19:36:02.726Z,1.25
2022-11-08T19:38:29.957Z,1.50
2022-11-08T19:40:57.220Z,1.30
2022-11-08T19:43:25.097Z,0.90
2022-11-08T19:45:56.874Z,1.63
2022-11-08T19:48:23.921Z,1.27
2022-11-08T19:50:51.025Z,1.48
2022-11-08T19:53:18.072Z,0.82
2022-11-08T19:55:45.186Z,1.40
2022-11-08T19:58:12.341Z,1.30
2022-11-08T20:00:39.721Z,0.90
2022-11-08T20:03:07.148Z,1.38
2022-11-08T20:05:34.478Z,0.90
2022-11-08T20:08:05.880Z,1.55
2022-11-08T20:10:33.016Z,0.90
2022-11-08T20:13:00.059Z,0.90
2022-11-08T20:15:27.344Z,1.42
2022-11-08T20:17:54.489Z,1.10
2022-11-08T20:20:21.838Z,1.42
2022-11-08T20:22:49.023Z,1.00
2022-11-08T20:25:16.186Z,1.48
2022-11-08T20:27:43.229Z,1.58
2022-11-08T20:30:10.671Z,1.38
2022-11-08T20:32:37.735Z,1.30
2022-11-08T20:35:04.895Z,1.20
2022-11-08T20:37:32.027Z,1.05
2022-11-08T20:39:59.118Z,1.35
2022-11-08T20:42:26.159Z,1.10
2022-11-08T20:44:53.341Z,1.35
2022-11-08T20:47:20.723Z,1.35
2022-11-08T20:49:47.884Z,1.50
2022-11-08T20:52:16.867Z,1.17
2022-11-08T20:54:45.105Z,1.08
2022-11-08T20:57:12.248Z,1.08
2022-11-08T20:59:39.293Z,1.48
2022-11-08T21:02:06.879Z,1.20
2022-11-08T21:04:34.265Z,1.27
2022-11-08T21:08:00.475Z,1.00
2022-11-08T21:09:50.983Z,0.98
2022-11-08T21:12:23.103Z,1.20
2022-11-08T21:14:50.186Z,1.23
2022-11-08T21:17:22.306Z,1.17
2022-11-08T21:19:50.932Z,1.13
2022-11-08T21:22:18.651Z,1.10
2022-11-08T21:24:47.591Z,1.05
2022-11-08T21:27:15.310Z,1.15
2022-11-08T21:29:42.699Z,0.90
2022-11-08T21:32:09.780Z,1.30
2022-11-08T21:34:36.842Z,1.05
2022-11-08T21:37:03.895Z,1.17
2022-11-08T21:39:30.975Z,0.95
2022-11-08T21:41:58.028Z,1.23
2022-11-08T21:44:25.073Z,1.23
2022-11-08T21:46:52.106Z,1.05
2022-11-08T21:49:19.323Z,1.10
2022-11-08T21:51:46.376Z,1.40
2022-11-08T21:54:13.466Z,1.05
2022-11-08T21:56:40.596Z,1.13
2022-11-08T21:59:07.652Z,0.85
2022-11-08T22:01:34.785Z,1.58
2022-11-08T22:04:02.029Z,1.10
2022-11-08T22:06:29.327Z,1.00
2022-11-08T22:08:56.554Z,1.77
2022-11-08T22:11:23.695Z,1.48
2022-11-08T22:13:51.048Z,1.30
2022-11-08T22:16:18.129Z,1.17
2022-11-08T22:21:43.000Z,1.27
2022-11-08T22:24:10.463Z,1.00
2022-11-08T22:26:37.732Z,1.30
2022-11-08T22:29:04.871Z,1.10
2022-11-08T22:31:32.188Z,1.40
2022-11-08T22:33:59.420Z,1.00
2022-11-08T22:36:26.620Z,1.10
2022-11-08T22:38:53.670Z,1.20
2022-11-08T22:41:21.629Z,1.10
2022-11-08T22:43:49.166Z,2.03
2022-11-08T22:46:17.059Z,1.23
2022-11-08T22:48:44.234Z,1.30
2022-11-08T22:51:11.442Z,1.23
2022-11-08T22:53:38.529Z,1.20
2022-11-08T22:56:11.006Z,1.00
2022-11-08T22:58:38.954Z,1.35
2022-11-08T23:01:06.330Z,1.40
2022-11-08T23:03:33.408Z,1.17
2022-11-08T23:06:00.574Z,0.95
2022-11-08T23:08:27.650Z,1.30
2022-11-08T23:11:15.071Z,1.15
2022-11-08T23:14:01.222Z,1.10
2022-11-08T23:16:37.618Z,1.40
2022-11-08T23:19:31.626Z,1.20
2022-11-08T23:22:17.485Z,1.10
2022-11-08T23:24:44.749Z,1.13
2022-11-08T23:27:31.913Z,1.17
2022-11-08T23:30:17.884Z,1.40
2022-11-08T23:32:45.939Z,1.30
2022-11-08T23:35:13.625Z,1.20
2022-11-08T23:37:40.781Z,1.40
2022-11-08T23:40:27.403Z,1.20
2022-11-08T23:43:42.178Z,1.20
2022-11-08T23:46:10.680Z,1.15
2022-11-08T23:48:38.967Z,1.30
2022-11-08T23:51:06.591Z,1.48
2022-11-08T23:53:34.412Z,1.08
2022-11-08T23:56:01.537Z,1.10
2022-11-08T23:58:28.594Z,1.15
